Time;durP1;ratioP1;P1;durP2;ratioP2;P2;SDS_P1;SDS_P2;PMS_P1;PMS_P2;Temp;Humidity;BMP_temperature;BMP_pressure;BME280_temperature;BME280_humidity;BME280_pressure;Samples;Min_cycle;Max_cycle;Signal;HPM_P1;HPM_P2
2021/12/11 00:01:02;;;;;;;16.00;7.63;;;;;;;0.07;87.27;95198.34;4986128;28;20373;-71
2021/12/11 00:03:32;;;;;;;12.30;6.85;;;;;;;0.04;87.52;95201.41;5002752;28;20109;-70
2021/12/11 00:06:23;;;;;;;16.48;8.35;;;;;;;0.07;86.98;95203.59;5001813;28;20155;-70
2021/12/11 00:08:53;;;;;;;14.75;8.15;;;;;;;0.08;87.50;95211.31;4991521;28;20065;-70
2021/12/11 00:11:33;;;;;;;20.02;7.90;;;;;;;0.06;87.36;95207.25;5003455;28;20042;-70
2021/12/11 00:14:01;;;;;;;13.65;7.82;;;;;;;0.05;86.68;95214.34;5001577;28;20373;-71
2021/12/11 00:16:30;;;;;;;15.48;8.20;;;;;;;0.05;86.90;95219.59;5002416;28;20041;-72
2021/12/11 00:19:02;;;;;;;12.65;6.82;;;;;;;0.01;87.00;95209.75;5002058;28;20077;-73
2021/12/11 00:21:30;;;;;;;16.90;8.68;;;;;;;0.06;86.94;95220.41;5002735;28;20500;-73
2021/12/11 00:24:05;;;;;;;16.90;8.52;;;;;;;0.04;86.80;95233.78;5000383;28;20576;-72
2021/12/11 00:26:35;;;;;;;15.55;8.23;;;;;;;0.05;87.20;95232.75;5001962;28;20038;-72
2021/12/11 00:29:02;;;;;;;12.95;7.68;;;;;;;0.02;87.26;95241.09;4998585;28;20113;-72
2021/12/11 00:31:29;;;;;;;17.20;8.60;;;;;;;0.07;87.75;95238.59;5002063;28;20491;-71
2021/12/11 00:33:55;;;;;;;15.50;8.18;;;;;;;0.12;87.59;95251.13;5001261;28;20042;-72
2021/12/11 00:36:31;;;;;;;13.75;7.50;;;;;;;0.04;87.49;95252.19;5001211;28;20072;-71
2021/12/11 00:39:07;;;;;;;14.45;8.32;;;;;;;0.01;87.21;95263.16;5000419;28;20033;-71
2021/12/11 00:41:33;;;;;;;15.55;7.93;;;;;;;-0.03;87.43;95264.56;5001378;28;20038;-71
2021/12/11 00:44:01;;;;;;;13.43;8.00;;;;;;;-0.03;87.98;95265.38;5003069;28;20469;-71
2021/12/11 00:46:29;;;;;;;16.58;8.02;;;;;;;-0.02;87.92;95271.44;5004772;28;20042;-71
2021/12/11 00:49:17;;;;;;;15.27;8.88;;;;;;;0.02;88.25;95280.53;5005513;28;20488;-71
2021/12/11 00:51:49;;;;;;;15.30;8.30;;;;;;;0.08;87.26;95290.22;5007649;28;20052;-72
2021/12/11 00:54:15;;;;;;;15.23;8.60;;;;;;;0.05;87.62;95298.53;5006406;28;20673;-71
2021/12/11 00:56:41;;;;;;;16.95;7.80;;;;;;;0.09;87.84;95297.09;5007514;28;20037;-71
2021/12/11 00:59:12;;;;;;;14.85;7.47;;;;;;;0.04;87.96;95310.06;5006710;28;20391;-73
2021/12/11 01:01:53;;;;;;;12.13;7.70;;;;;;;0.05;87.91;95302.97;5005549;28;20449;-72
2021/12/11 01:04:24;;;;;;;14.35;8.23;;;;;;;-0.02;87.61;95313.53;5004212;28;20350;-74
2021/12/11 01:06:58;;;;;;;15.83;7.87;;;;;;;-0.04;87.86;95319.00;4989624;28;20030;-72
2021/12/11 01:09:28;;;;;;;15.48;8.05;;;;;;;-0.18;88.07;95316.66;5006154;28;20279;-73
2021/12/11 01:12:02;;;;;;;12.63;7.75;;;;;;;-0.15;88.31;95326.75;5003911;28;20464;-71
2021/12/11 01:14:41;;;;;;;19.90;8.25;;;;;;;-0.20;88.22;95331.81;5005807;28;20116;-71
2021/12/11 01:17:13;;;;;;;12.65;7.50;;;;;;;-0.18;88.94;95345.56;5006997;28;20068;-73
2021/12/11 01:19:44;;;;;;;16.00;8.18;;;;;;;-0.24;89.10;95351.66;5004822;28;20127;-71
2021/12/11 01:22:32;;;;;;;19.43;8.87;;;;;;;-0.28;89.44;95344.19;5006345;28;20108;-71
2021/12/11 01:25:00;;;;;;;17.48;9.02;;;;;;;-0.25;89.10;95369.25;5004167;28;20397;-74
2021/12/11 01:27:26;;;;;;;13.20;8.52;;;;;;;-0.25;89.03;95365.81;5006344;28;20403;-72
2021/12/11 01:29:56;;;;;;;17.23;9.25;;;;;;;-0.19;89.31;95376.31;5004495;28;20491;-73
2021/12/11 01:32:23;;;;;;;18.30;9.20;;;;;;;-0.17;89.45;95379.53;5007071;28;20117;-71
2021/12/11 01:34:50;;;;;;;16.45;8.93;;;;;;;-0.21;89.04;95385.44;5005995;28;20330;-71
2021/12/11 01:37:17;;;;;;;17.15;8.90;;;;;;;-0.23;89.07;95393.53;5005995;28;20058;-73
2021/12/11 01:39:43;;;;;;;21.98;9.50;;;;;;;-0.27;89.16;95387.06;5005378;28;20042;-72
2021/12/11 01:42:17;;;;;;;13.40;7.00;;;;;;;-0.23;89.19;95405.84;5005507;28;20872;-71
2021/12/11 01:44:44;;;;;;;17.40;8.82;;;;;;;-0.30;90.01;95398.00;5006354;28;20045;-71
2021/12/11 01:47:26;;;;;;;20.83;9.15;;;;;;;-0.32;89.42;95408.69;5004851;28;20038;-71
2021/12/11 01:49:55;;;;;;;18.83;9.60;;;;;;;-0.29;89.93;95413.56;5004956;28;20030;-72
2021/12/11 01:52:37;;;;;;;17.50;9.38;;;;;;;-0.32;90.19;95423.66;5005272;28;20121;-71
2021/12/11 01:55:11;;;;;;;20.73;10.00;;;;;;;-0.34;89.76;95430.97;5005228;28;20358;-71
2021/12/11 01:57:38;;;;;;;18.48;10.50;;;;;;;-0.35;90.14;95438.03;5006826;28;20077;-72
2021/12/11 02:00:20;;;;;;;20.15;10.43;;;;;;;-0.34;90.02;95447.53;5004370;28;20030;-71
2021/12/11 02:02:49;;;;;;;21.27;9.68;;;;;;;-0.34;90.23;95446.72;5005693;28;20061;-71
2021/12/11 02:05:22;;;;;;;18.80;9.50;;;;;;;-0.38;89.71;95464.75;5005062;28;20041;-71
2021/12/11 02:07:51;;;;;;;21.02;10.30;;;;;;;-0.36;89.82;95475.06;5004576;28;20038;-71
2021/12/11 02:10:23;;;;;;;19.10;9.23;;;;;;;-0.39;89.93;95473.66;5006790;28;20512;-72
2021/12/11 02:12:51;;;;;;;18.70;9.45;;;;;;;-0.38;90.38;95474.47;5006680;28;20042;-72
2021/12/11 02:15:28;;;;;;;18.77;9.65;;;;;;;-0.32;90.37;95482.31;5002435;28;20038;-71
2021/12/11 02:18:20;;;;;;;23.15;10.95;;;;;;;-0.28;90.44;95480.09;5002201;28;20049;-72
2021/12/11 02:20:52;;;;;;;;;;;;;;;-0.24;89.97;95491.81;5006179;28;20034;-71
2021/12/11 02:23:19;;;;;;;19.10;9.07;;;;;;;-0.22;90.22;95494.25;5005303;28;19924;-72
2021/12/11 02:25:52;;;;;;;16.25;9.35;;;;;;;-0.20;89.60;95502.75;5004142;28;20037;-72
2021/12/11 02:28:29;;;;;;;18.60;10.45;;;;;;;-0.21;89.94;95512.47;5004359;28;20030;-72
2021/12/11 02:31:19;;;;;;;32.63;10.23;;;;;;;-0.17;90.10;95510.22;5002549;28;20512;-71
2021/12/11 02:33:52;;;;;;;23.00;10.82;;;;;;;-0.14;90.12;95520.34;5005617;28;20042;-72
2021/12/11 02:36:35;;;;;;;19.35;10.05;;;;;;;-0.15;89.52;95522.16;4971795;28;20065;-71
2021/12/11 02:39:06;;;;;;;25.50;12.55;;;;;;;-0.14;89.64;95528.22;5004987;28;20049;-72
2021/12/11 02:41:48;;;;;;;;;;;;;;;-0.12;89.90;95536.72;5005965;28;20077;-71
2021/12/11 02:44:27;;;;;;;16.33;8.85;;;;;;;-0.13;88.89;95533.28;5004715;28;19913;-71
2021/12/11 02:47:12;;;;;;;20.90;11.18;;;;;;;-0.09;89.28;95538.94;5005485;28;20188;-74
2021/12/11 02:50:09;;;;;;;23.38;10.52;;;;;;;-0.05;89.18;95543.59;4990397;28;20045;-72
2021/12/11 02:52:40;;;;;;;19.70;10.63;;;;;;;-0.06;89.14;95543.81;5005065;28;20045;-72
2021/12/11 02:55:21;;;;;;;21.75;11.55;;;;;;;-0.06;88.93;95549.88;5003149;28;20365;-72
2021/12/11 02:57:54;;;;;;;21.13;10.00;;;;;;;-0.05;89.29;95551.47;5003746;28;20153;-71
2021/12/11 03:00:27;;;;;;;21.00;10.80;;;;;;;-0.07;89.00;95550.06;5005295;28;20056;-71
2021/12/11 03:03:03;;;;;;;21.75;9.50;;;;;;;-0.11;89.57;95551.47;5004748;28;20423;-74
2021/12/11 03:05:38;;;;;;;21.67;11.68;;;;;;;-0.06;89.73;95562.22;5005619;28;20476;-71
2021/12/11 03:08:06;;;;;;;23.67;12.73;;;;;;;-0.09;89.34;95557.34;5003624;28;20052;-71
2021/12/11 03:10:35;;;;;;;23.25;11.73;;;;;;;-0.04;89.75;95574.13;5003989;28;20030;-71
2021/12/11 03:13:01;;;;;;;26.88;11.73;;;;;;;-0.06;89.76;95572.72;5003989;28;20117;-72
2021/12/11 03:15:26;;;;;;;31.30;12.80;;;;;;;-0.11;89.31;95575.16;5005643;28;20499;-74
2021/12/11 03:17:53;;;;;;;34.35;15.30;;;;;;;-0.09;89.95;95579.19;5003551;28;20096;-71
2021/12/11 03:20:21;;;;;;;30.38;13.30;;;;;;;-0.10;90.50;95582.84;5003781;28;20461;-71
2021/12/11 03:22:47;;;;;;;31.52;14.45;;;;;;;-0.14;90.14;95593.97;5003764;28;20049;-71
2021/12/11 03:25:17;;;;;;;31.30;13.18;;;;;;;-0.10;91.01;95606.50;5002506;28;20051;-71
2021/12/11 03:27:44;;;;;;;44.42;15.23;;;;;;;-0.13;91.01;95612.19;5003728;28;20038;-71
2021/12/11 03:30:13;;;;;;;46.83;18.75;;;;;;;-0.15;91.71;95608.94;5002747;28;20092;-71
2021/12/11 03:32:39;;;;;;;48.53;17.90;;;;;;;-0.10;91.91;95624.91;5004365;28;20138;-71
2021/12/11 03:35:06;;;;;;;42.35;17.80;;;;;;;-0.10;91.41;95621.47;5002393;28;20030;-72
2021/12/11 03:37:32;;;;;;;59.88;19.63;;;;;;;-0.11;91.40;95628.56;5001271;28;20096;-73
2021/12/11 03:39:58;;;;;;;51.03;19.77;;;;;;;-0.11;91.82;95622.50;5005067;28;20033;-72
2021/12/11 03:42:30;;;;;;;53.58;18.75;;;;;;;-0.08;92.28;95638.69;5001936;28;20026;-74
2021/12/11 03:44:58;;;;;;;41.33;17.42;;;;;;;-0.06;92.10;95630.59;5002664;28;20049;-71
2021/12/11 03:47:36;;;;;;;47.50;19.90;;;;;;;-0.14;91.60;95644.75;5003655;28;20030;-71
2021/12/11 03:50:04;;;;;;;41.10;17.67;;;;;;;-0.19;91.96;95646.34;5003552;28;20050;-71
2021/12/11 03:52:29;;;;;;;90.53;20.48;;;;;;;-0.21;92.65;95645.75;5004481;28;20031;-72
2021/12/11 03:54:55;;;;;;;64.93;21.58;;;;;;;-0.20;92.34;95653.44;5004067;28;20680;-72
2021/12/11 03:57:26;;;;;;;63.38;19.10;;;;;;;-0.18;92.33;95656.66;5004525;28;20042;-71
2021/12/11 03:59:54;;;;;;;76.43;18.20;;;;;;;-0.23;92.68;95653.84;4978988;28;20030;-72
2021/12/11 04:02:32;;;;;;;56.33;18.45;;;;;;;-0.23;93.34;95661.75;5003504;28;20045;-71
2021/12/11 04:05:00;;;;;;;48.10;16.55;;;;;;;-0.23;93.17;95668.78;5003512;28;20032;-71
2021/12/11 04:07:34;;;;;;;63.50;19.77;;;;;;;-0.29;93.66;95658.09;5002828;28;20594;-74
2021/12/11 04:09:59;;;;;;;50.17;18.48;;;;;;;-0.25;92.89;95669.00;5008057;28;20041;-73
2021/12/11 04:12:26;;;;;;;57.30;20.17;;;;;;;-0.23;93.45;95669.63;5007983;28;20041;-71
2021/12/11 04:14:54;;;;;;;40.72;17.98;;;;;;;-0.19;93.52;95670.03;5004892;28;20474;-71
2021/12/11 04:17:22;;;;;;;54.25;19.23;;;;;;;-0.25;93.06;95670.81;5003759;28;20038;-71
2021/12/11 04:19:50;;;;;;;60.55;19.20;;;;;;;-0.21;93.22;95677.31;5001287;28;20114;-72
2021/12/11 04:22:15;;;;;;;45.17;20.02;;;;;;;-0.22;92.53;95684.41;5001527;28;20038;-72
2021/12/11 04:24:44;;;;;;;59.92;18.30;;;;;;;-0.22;93.30;95687.03;4990375;28;20441;-74
2021/12/11 04:27:13;;;;;;;63.60;18.08;;;;;;;-0.22;93.10;95702.81;5002578;28;20026;-71
2021/12/11 04:29:38;;;;;;;40.30;16.48;;;;;;;-0.24;93.34;95711.88;5003699;28;20045;-71
2021/12/11 04:32:05;;;;;;;44.17;18.92;;;;;;;-0.28;93.19;95707.03;4984046;28;20046;-74
2021/12/11 04:34:33;;;;;;;54.83;20.90;;;;;;;-0.23;92.94;95708.22;5002786;28;20427;-72
2021/12/11 04:37:11;;;;;;;55.50;20.88;;;;;;;-0.24;93.48;95714.50;5000149;28;20037;-73
2021/12/11 04:39:38;;;;;;;44.80;18.70;;;;;;;-0.32;92.89;95711.03;5002971;28;20117;-72
2021/12/11 04:42:37;;;;;;;37.22;15.88;;;;;;;-0.32;93.29;95732.09;5003005;28;20045;-72
2021/12/11 04:44:55;;;;;;;50.88;19.60;;;;;;;-0.33;93.22;95729.66;5003049;28;20045;-72
2021/12/11 04:47:46;;;;;;;38.67;16.42;;;;;;;-0.33;92.58;95727.03;5006678;28;20476;-73
2021/12/11 04:50:25;;;;;;;48.28;19.10;;;;;;;-0.34;93.05;95741.19;5001717;28;21991;-74
2021/12/11 04:52:55;;;;;;;50.50;18.83;;;;;;;-0.39;92.74;95747.06;4979799;28;20042;-72
2021/12/11 05:06:34;;;;;;;45.55;18.67;;;;;;;-0.30;92.86;95760.84;4911184;29;20055;-73
2021/12/11 05:09:18;;;;;;;47.85;17.83;;;;;;;-0.32;93.11;95752.31;4991004;28;20046;-72
2021/12/11 05:12:06;;;;;;;35.55;13.38;;;;;;;-0.35;92.79;95763.22;5001471;28;20029;-73
2021/12/11 05:14:32;;;;;;;46.13;17.17;;;;;;;-0.42;92.59;95757.94;5001927;28;20369;-72
2021/12/11 05:16:57;;;;;;;42.85;16.85;;;;;;;-0.46;93.10;95762.00;5000978;28;20041;-73
2021/12/11 05:19:23;;;;;;;42.60;15.20;;;;;;;-0.47;92.86;95777.94;5003701;28;20316;-71
2021/12/11 05:21:49;;;;;;;42.92;16.30;;;;;;;-0.51;92.48;95785.41;5002110;28;20026;-71
2021/12/11 05:24:16;;;;;;;37.60;11.45;;;;;;;-0.56;92.22;95779.91;4985210;28;20030;-72
2021/12/11 05:26:43;;;;;;;38.20;14.32;;;;;;;-0.61;92.40;95784.97;5002776;28;20049;-72
2021/12/11 05:29:08;;;;;;;31.60;13.23;;;;;;;-0.62;92.71;95799.94;4986913;28;20088;-72
2021/12/11 05:31:34;;;;;;;31.75;9.93;;;;;;;-0.67;91.80;95796.25;4985319;28;20481;-72
2021/12/11 05:34:00;;;;;;;33.20;13.13;;;;;;;-0.64;92.00;95809.00;5005236;28;20034;-72
2021/12/11 05:36:31;;;;;;;47.47;16.08;;;;;;;-0.67;91.87;95807.56;5004625;28;20030;-72
2021/12/11 05:38:57;;;;;;;34.03;13.40;;;;;;;-0.69;91.52;95814.03;5004615;28;20061;-72
2021/12/11 05:41:22;;;;;;;39.33;13.73;;;;;;;-0.70;91.24;95812.38;5007128;28;20119;-73
2021/12/11 05:43:49;;;;;;;38.63;14.30;;;;;;;-0.71;91.51;95816.03;5004707;28;20110;-74
2021/12/11 05:46:16;;;;;;;35.40;13.07;;;;;;;-0.75;91.23;95820.06;4987244;28;20045;-72
2021/12/11 05:48:45;;;;;;;32.08;12.45;;;;;;;-0.78;91.25;95825.69;5005690;28;20034;-73
2021/12/11 05:51:13;;;;;;;29.95;12.98;;;;;;;-0.77;91.35;95835.22;5004234;28;20049;-71
2021/12/11 05:53:38;;;;;;;35.70;12.75;;;;;;;-0.78;91.15;95847.50;5006404;28;20354;-73
2021/12/11 05:56:11;;;;;;;34.72;14.88;;;;;;;-0.78;91.57;95841.44;5006147;28;20049;-73
2021/12/11 06:01:25;;;;;;;43.08;14.15;;;;;;;-0.78;91.13;95850.13;5004020;28;20050;-74
2021/12/11 06:03:51;;;;;;;38.90;14.10;;;;;;;-0.75;91.11;95856.84;5007727;28;20034;-73
2021/12/11 06:06:17;;;;;;;40.30;14.50;;;;;;;-0.77;90.76;95864.13;5004730;28;20049;-72
2021/12/11 06:08:43;;;;;;;34.53;13.88;;;;;;;-0.76;90.79;95871.81;5004524;28;20084;-72
2021/12/11 06:11:10;;;;;;;41.95;14.13;;;;;;;-0.74;90.40;95876.84;5005381;28;20048;-74
2021/12/11 06:13:37;;;;;;;40.35;14.85;;;;;;;-0.71;90.97;95876.47;3565234;28;10024625;-72
2021/12/11 06:16:04;;;;;;;42.17;15.82;;;;;;;-0.63;90.63;95886.81;1722402;28;10001995;-73
2021/12/11 06:18:29;;;;;;;37.63;15.23;;;;;;;-0.61;90.60;95884.84;5005094;28;20044;-72
2021/12/11 06:20:55;;;;;;;44.45;16.50;;;;;;;-0.69;90.41;95888.44;5002683;28;20121;-73
2021/12/11 06:23:22;;;;;;;44.25;15.70;;;;;;;-0.69;90.83;95908.63;5004445;28;20026;-71
2021/12/11 06:25:49;;;;;;;48.80;16.70;;;;;;;-0.57;90.56;95913.16;5005703;28;20050;-72
2021/12/11 06:28:15;;;;;;;45.67;15.68;;;;;;;-0.54;89.69;95922.50;5005478;28;20030;-71
2021/12/11 06:30:40;;;;;;;39.42;15.82;;;;;;;-0.71;89.88;95921.13;5005587;28;20572;-73
2021/12/11 06:33:07;;;;;;;43.97;16.45;;;;;;;-0.82;91.15;95919.84;5003850;28;20034;-74
2021/12/11 06:35:47;;;;;;;43.35;16.42;;;;;;;-0.70;91.29;95928.00;5004004;28;20504;-72
2021/12/11 06:38:17;;;;;;;51.40;17.55;;;;;;;-0.64;90.45;95932.50;5001509;28;20072;-72
2021/12/11 06:40:44;;;;;;;47.78;15.90;;;;;;;-0.58;90.09;95942.25;5006065;28;20041;-71
2021/12/11 06:43:10;;;;;;;47.45;16.70;;;;;;;-0.54;90.19;95943.53;5004451;28;20046;-72
2021/12/11 06:45:37;;;;;;;40.95;15.45;;;;;;;-0.48;89.97;95952.44;5005065;28;20034;-72
2021/12/11 06:48:03;;;;;;;45.67;15.63;;;;;;;-0.54;89.86;95964.53;5002237;28;20365;-71
2021/12/11 06:50:29;;;;;;;46.13;16.77;;;;;;;-0.49;89.37;95970.03;5003018;28;20123;-72
2021/12/11 06:52:57;;;;;;;44.67;15.18;;;;;;;-0.46;89.99;95982.81;5003001;28;20037;-72
2021/12/11 06:55:23;;;;;;;42.70;15.65;;;;;;;-0.45;89.54;95983.63;5003811;28;20026;-71
2021/12/11 06:57:49;;;;;;;46.33;15.77;;;;;;;-0.47;89.10;95983.78;5004383;28;20116;-73
2021/12/11 07:00:18;;;;;;;48.88;15.60;;;;;;;-0.54;89.35;95996.09;5000035;28;20026;-71
2021/12/11 07:02:44;;;;;;;44.67;15.55;;;;;;;-0.60;90.19;96002.09;5003784;28;20944;-73
2021/12/11 07:05:12;;;;;;;48.20;16.58;;;;;;;-0.59;89.73;96001.09;4987279;28;20026;-71
2021/12/11 07:07:40;;;;;;;53.85;16.65;;;;;;;-0.62;90.05;96010.19;5002323;28;20037;-72
2021/12/11 07:10:09;;;;;;;57.78;12.48;;;;;;;-0.72;91.06;96014.09;5003550;28;20046;-71
2021/12/11 07:12:34;;;;;;;52.15;16.27;;;;;;;-0.78;91.20;96020.09;4980775;28;20102;-71
2021/12/11 07:15:00;;;;;;;50.50;17.25;;;;;;;-0.75;91.62;96032.88;5004224;28;20528;-72
2021/12/11 07:17:25;;;;;;;44.50;15.77;;;;;;;-0.85;91.00;96038.47;5003338;28;20036;-72
2021/12/11 07:19:51;;;;;;;59.60;17.55;;;;;;;-0.90;90.92;96048.72;5004400;28;20053;-71
2021/12/11 07:22:17;;;;;;;41.05;12.80;;;;;;;-0.91;90.38;96052.34;5003625;28;20129;-71
2021/12/11 07:24:56;;;;;;;41.95;14.73;;;;;;;-0.94;90.83;96048.25;5004913;28;20030;-71
2021/12/11 07:27:22;;;;;;;49.65;14.25;;;;;;;-0.92;90.62;96058.59;5002373;28;20590;-73
2021/12/11 07:29:48;;;;;;;38.58;13.85;;;;;;;-0.94;90.82;96061.38;5004703;28;20045;-71
2021/12/11 07:32:14;;;;;;;49.90;15.93;;;;;;;-0.82;90.58;96071.41;5000260;28;20412;-71
2021/12/11 07:34:41;;;;;;;44.97;15.60;;;;;;;-0.80;90.65;96077.28;5005600;28;20030;-71
2021/12/11 07:37:06;;;;;;;45.88;14.80;;;;;;;-0.88;90.80;96072.97;5003807;28;20068;-71
2021/12/11 07:39:32;;;;;;;51.78;16.05;;;;;;;-0.86;90.03;96084.94;5004890;28;20066;-71
2021/12/11 07:41:58;;;;;;;58.17;16.27;;;;;;;-0.80;90.42;96085.97;5003789;28;20532;-70
2021/12/11 07:44:25;;;;;;;47.13;16.35;;;;;;;-0.79;90.99;96090.25;5002736;28;20034;-71
2021/12/11 07:46:54;;;;;;;52.97;16.50;;;;;;;-0.74;90.70;96089.69;5005607;28;20052;-71
2021/12/11 07:49:19;;;;;;;55.75;17.13;;;;;;;-0.78;90.45;96097.13;5004392;28;20461;-71
2021/12/11 07:51:45;;;;;;;50.17;17.30;;;;;;;-0.76;90.86;96103.03;5005982;28;20041;-71
2021/12/11 07:54:11;;;;;;;54.63;16.40;;;;;;;-0.78;90.53;96104.19;5003354;28;20539;-72
2021/12/11 07:56:37;;;;;;;34.45;12.10;;;;;;;-0.78;90.85;96102.38;5004954;28;20455;-72
2021/12/11 07:59:05;;;;;;;51.72;17.33;;;;;;;-0.79;90.61;96100.75;5003783;28;20038;-73
2021/12/11 08:01:34;;;;;;;50.13;17.48;;;;;;;-0.67;90.85;96111.59;5006142;28;20452;-71
2021/12/11 08:04:03;;;;;;;55.40;16.35;;;;;;;-0.64;90.51;96121.72;5003251;28;20037;-71
2021/12/11 08:06:31;;;;;;;52.05;17.05;;;;;;;-0.60;89.80;96126.44;5003732;28;20137;-72
2021/12/11 08:08:57;;;;;;;54.60;16.92;;;;;;;-0.49;89.87;96126.94;4987596;28;20313;-73
2021/12/11 08:11:25;;;;;;;58.20;18.10;;;;;;;-0.42;89.13;96135.69;5004264;28;20042;-72
2021/12/11 08:13:51;;;;;;;56.05;18.02;;;;;;;-0.34;89.47;96133.75;5003011;28;20442;-73
2021/12/11 08:16:22;;;;;;;55.42;17.98;;;;;;;-0.26;89.25;96137.25;5003369;28;20232;-72
2021/12/11 08:18:50;;;;;;;58.07;18.07;;;;;;;-0.21;88.78;96143.59;5007935;28;20049;-73
2021/12/11 08:21:16;;;;;;;49.45;16.25;;;;;;;-0.18;88.93;96147.66;4989402;28;20026;-72
2021/12/11 08:23:44;;;;;;;51.85;15.90;;;;;;;-0.17;87.68;96151.91;4990687;28;20672;-72
2021/12/11 08:26:18;;;;;;;42.80;15.45;;;;;;;-0.14;87.71;96160.25;5002751;28;20060;-73
2021/12/11 08:28:45;;;;;;;51.58;17.48;;;;;;;-0.12;87.51;96162.69;4979192;28;20030;-70
2021/12/11 08:31:14;;;;;;;55.17;17.05;;;;;;;-0.05;87.61;96176.72;5001599;28;20488;-70
2021/12/11 08:33:40;;;;;;;50.97;16.73;;;;;;;0.07;87.84;96177.81;5004195;28;20040;-70
2021/12/11 08:36:06;;;;;;;51.25;16.90;;;;;;;0.11;86.72;96175.63;4986274;28;20469;-71
2021/12/11 08:38:31;;;;;;;60.28;18.08;;;;;;;0.13;86.75;96186.78;4986521;28;20041;-73
2021/12/11 08:40:59;;;;;;;52.03;17.88;;;;;;;0.20;86.84;96199.00;5003114;28;20034;-70
2021/12/11 08:43:26;;;;;;;51.03;18.63;;;;;;;0.25;86.99;96207.13;5004112;28;20150;-71
2021/12/11 08:46:08;;;;;;;52.97;18.27;;;;;;;0.28;86.48;96200.66;5004226;28;20408;-72
2021/12/11 08:48:36;;;;;;;51.72;17.27;;;;;;;0.32;86.25;96211.66;5002513;28;20580;-71
2021/12/11 08:51:09;;;;;;;50.15;16.85;;;;;;;0.35;86.03;96219.16;5002627;28;20049;-72
2021/12/11 08:53:36;;;;;;;47.63;15.85;;;;;;;0.39;85.73;96223.88;5003936;28;20096;-70
2021/12/11 08:56:07;;;;;;;52.70;17.08;;;;;;;0.44;85.98;96228.53;5001576;28;20033;-71
2021/12/11 08:58:35;;;;;;;45.65;15.80;;;;;;;0.50;85.92;96236.50;5003422;28;20362;-71
2021/12/11 09:01:08;;;;;;;50.88;16.67;;;;;;;0.58;85.21;96240.81;5003734;28;20041;-71
2021/12/11 09:03:41;;;;;;;48.35;16.77;;;;;;;0.61;85.05;96240.41;5004445;28;20034;-70
2021/12/11 09:06:10;;;;;;;45.35;16.55;;;;;;;0.63;84.90;96248.97;5003365;28;20246;-71
2021/12/11 09:08:44;;;;;;;50.42;16.80;;;;;;;0.63;85.03;96250.78;5008649;28;20366;-71
2021/12/11 09:11:36;;;;;;;54.63;17.05;;;;;;;0.63;85.00;96251.59;5006012;28;20043;-71
2021/12/11 09:14:04;;;;;;;;;;;;;;;0.64;84.78;96258.47;5008073;28;20073;-71
2021/12/11 09:16:43;;;;;;;48.95;16.65;;;;;;;0.68;84.71;96259.72;5004734;28;20490;-71
2021/12/11 09:19:26;;;;;;;44.85;15.10;;;;;;;0.66;84.81;96255.66;5005097;28;20373;-73
2021/12/11 09:22:17;;;;;;;55.15;17.27;;;;;;;0.63;84.21;96270.03;5003091;28;20124;-71
2021/12/11 09:25:03;;;;;;;46.42;15.75;;;;;;;0.66;84.16;96282.81;5001936;28;20050;-71
2021/12/11 09:27:48;;;;;;;46.20;15.30;;;;;;;0.75;84.00;96280.84;5004323;28;20064;-71
2021/12/11 09:30:17;;;;;;;47.45;17.15;;;;;;;0.87;84.36;96281.97;5006419;28;20045;-71
2021/12/11 09:33:05;;;;;;;41.60;15.75;;;;;;;0.86;83.66;96282.13;5005955;28;20053;-71
2021/12/11 09:35:37;;;;;;;48.85;16.10;;;;;;;0.84;83.59;96279.69;5006328;28;20238;-72
2021/12/11 09:38:09;;;;;;;47.53;16.58;;;;;;;0.89;83.32;96289.66;4988673;28;20038;-73
2021/12/11 09:40:34;;;;;;;48.25;15.57;;;;;;;0.84;83.23;96285.78;5004425;28;20372;-71
2021/12/11 09:43:01;;;;;;;47.30;16.60;;;;;;;0.90;83.13;96293.94;4987528;28;20116;-71
2021/12/11 09:45:32;;;;;;;58.70;18.15;;;;;;;0.96;83.59;96288.72;5006317;28;20092;-72
2021/12/11 09:48:06;;;;;;;49.70;16.33;;;;;;;1.08;83.29;96296.88;5005070;28;20050;-72
2021/12/11 09:50:45;;;;;;;45.80;16.30;;;;;;;1.18;82.59;96294.72;5007089;28;20034;-72
2021/12/11 09:53:12;;;;;;;48.33;17.17;;;;;;;1.25;82.14;96292.13;5007524;28;20046;-71
2021/12/11 09:55:39;;;;;;;38.97;14.18;;;;;;;1.27;81.26;96301.47;5006636;28;20895;-73
2021/12/11 09:58:11;;;;;;;44.70;15.82;;;;;;;1.23;81.43;96308.13;5007363;28;20038;-71
2021/12/11 10:00:47;;;;;;;40.90;15.75;;;;;;;1.20;81.31;96318.25;5005411;28;20485;-72
2021/12/11 10:03:18;;;;;;;41.47;15.30;;;;;;;1.16;81.31;96311.72;5005897;28;20449;-72
2021/12/11 10:06:11;;;;;;;37.10;15.68;;;;;;;1.21;81.46;96318.06;5006100;28;20049;-72
2021/12/11 10:08:40;;;;;;;37.35;14.73;;;;;;;1.36;81.11;96320.59;5005949;28;20042;-71
2021/12/11 10:11:12;;;;;;;41.88;16.58;;;;;;;1.46;81.33;96323.69;5006002;28;20113;-72
2021/12/11 10:14:02;;;;;;;37.60;15.13;;;;;;;1.65;80.28;96320.34;5006084;28;20069;-71
2021/12/11 10:16:33;;;;;;;40.60;14.93;;;;;;;2.01;79.49;96308.69;5006877;28;20249;-73
2021/12/11 10:18:58;;;;;;;40.05;13.90;;;;;;;2.31;77.51;96313.66;4989397;28;20029;-72
2021/12/11 10:21:32;;;;;;;31.88;11.10;;;;;;;2.03;76.73;96311.97;5007448;28;20103;-72
2021/12/11 10:24:01;;;;;;;26.88;11.65;;;;;;;2.06;77.36;96318.69;5001016;28;20030;-72
2021/12/11 10:26:28;;;;;;;22.90;9.45;;;;;;;2.03;76.92;96319.09;5006522;28;20124;-73
2021/12/11 10:28:57;;;;;;;28.48;12.57;;;;;;;1.88;77.20;96321.88;5003505;28;20033;-72
2021/12/11 10:31:28;;;;;;;31.38;11.43;;;;;;;1.87;77.55;96328.97;4999938;28;20054;-72
2021/12/11 10:33:56;;;;;;;29.45;10.93;;;;;;;2.12;77.37;96323.16;5004523;28;20533;-73
2021/12/11 10:36:26;;;;;;;33.15;11.75;;;;;;;2.30;76.58;96326.06;5005369;28;20052;-71
2021/12/11 10:38:53;;;;;;;35.28;13.05;;;;;;;2.31;76.19;96332.16;5004765;28;20046;-72
2021/12/11 10:41:19;;;;;;;34.20;11.88;;;;;;;2.30;76.52;96327.88;5006710;28;20584;-72
2021/12/11 10:43:56;;;;;;;29.73;11.80;;;;;;;2.30;76.55;96339.25;5003267;28;20811;-71
2021/12/11 10:46:29;;;;;;;31.58;12.93;;;;;;;2.31;76.95;96337.44;5004659;28;20037;-72
2021/12/11 10:48:55;;;;;;;33.72;13.30;;;;;;;2.24;76.45;96330.28;5002519;28;20044;-72
2021/12/11 10:51:30;;;;;;;30.55;12.85;;;;;;;2.43;76.46;96335.84;5001881;28;20037;-71
2021/12/11 10:53:57;;;;;;;36.30;13.40;;;;;;;2.46;76.34;96344.16;5001201;28;20461;-71
2021/12/11 10:56:24;;;;;;;33.90;13.43;;;;;;;2.41;76.77;96346.63;5002924;28;20030;-72
2021/12/11 10:58:59;;;;;;;38.67;15.57;;;;;;;2.48;76.75;96344.78;5001319;28;20041;-73
2021/12/11 11:02:00;;;;;;;40.10;12.80;;;;;;;2.54;76.21;96348.44;4998684;28;20047;-72
2021/12/11 11:04:34;;;;;;;31.85;13.35;;;;;;;2.55;76.48;96351.91;5003699;28;20383;-74
2021/12/11 11:07:01;;;;;;;36.15;13.13;;;;;;;2.53;76.28;96359.22;5000781;28;20037;-72
2021/12/11 11:09:29;;;;;;;34.13;13.10;;;;;;;2.42;76.67;96353.53;5001774;28;20032;-72
2021/12/11 11:11:58;;;;;;;37.97;13.85;;;;;;;2.34;77.16;96360.81;5001221;28;20029;-73
2021/12/11 11:14:26;;;;;;;37.97;14.70;;;;;;;2.34;77.64;96350.25;5004075;28;20847;-73
2021/12/11 11:16:55;;;;;;;39.97;14.93;;;;;;;2.37;78.32;96355.94;4987853;28;20048;-71
2021/12/11 11:19:23;;;;;;;36.40;14.90;;;;;;;2.37;78.06;96360.41;5004954;28;20037;-73
2021/12/11 11:21:56;;;;;;;35.88;14.90;;;;;;;2.39;79.19;96364.47;5000574;28;20042;-72
2021/12/11 11:24:23;;;;;;;47.80;21.27;;;;;;;2.11;79.81;96369.06;5001474;28;20132;-72
2021/12/11 11:26:49;;;;;;;43.17;20.05;;;;;;;2.05;80.23;96361.94;4984234;28;20050;-72
2021/12/11 11:29:18;;;;;;;43.63;16.80;;;;;;;1.75;81.15;96367.47;5000874;28;20030;-74
2021/12/11 11:31:46;;;;;;;40.22;16.55;;;;;;;1.67;82.15;96359.72;5001398;28;20128;-71
2021/12/11 11:34:17;;;;;;;48.40;19.75;;;;;;;1.66;82.45;96368.66;5002040;28;20229;-72
2021/12/11 11:36:43;;;;;;;47.03;17.95;;;;;;;1.42;83.09;96382.28;5000195;28;20166;-74
2021/12/11 11:39:11;;;;;;;42.38;18.25;;;;;;;1.51;83.62;96373.22;4981233;28;20552;-71
2021/12/11 11:41:42;;;;;;;49.75;18.10;;;;;;;1.56;83.40;96379.53;5001046;28;20113;-71
2021/12/11 11:44:09;;;;;;;37.65;16.90;;;;;;;1.41;84.14;96386.75;5002087;28;20120;-72
2021/12/11 11:46:37;;;;;;;40.38;16.42;;;;;;;1.46;84.24;96372.97;4999730;28;20045;-71
2021/12/11 11:49:04;;;;;;;49.25;17.58;;;;;;;1.49;84.97;96378.69;5000711;28;20046;-73
2021/12/11 11:51:35;;;;;;;41.67;17.08;;;;;;;1.47;85.02;96380.69;5002945;28;20107;-74